Wetterdaten: Woche 01.03.21 - 07.03.21 (KW9)
Datum Zeit Temp. A. Feuchte A. Luftdruck Regen Wind Richtung Taupunkt Windchill Windben
01.03.2021 00:00 0,9 C 81 % 1032,9 hPa 0,0 l/m 0,0 km/h N -2,0 C 0,9 C 0,0 km/h
01.03.2021 01:00 1,7 C 81 % 1032,8 hPa 0,0 l/m 0,0 km/h N -1,2 C 1,7 C 0,0 km/h
01.03.2021 02:00 3,1 C 79 % 1032,4 hPa 0,0 l/m 0,0 km/h N -0,3 C 3,1 C 0,4 km/h
01.03.2021 03:00 3,9 C 74 % 1032,2 hPa 0,0 l/m 0,3 km/h N -0,3 C 3,9 C 3,2 km/h
01.03.2021 04:00 3,3 C 73 % 1032,7 hPa 0,0 l/m 0,0 km/h N -1,0 C 3,3 C 1,2 km/h
01.03.2021 05:00 3,5 C 75 % 1033,2 hPa 0,0 l/m 0,4 km/h N -0,6 C 3,5 C 3,6 km/h
01.03.2021 06:00 3,4 C 74 % 1033,6 hPa 0,0 l/m 0,1 km/h N -0,9 C 3,4 C 1,2 km/h
01.03.2021 07:00 3,0 C 76 % 1034,3 hPa 0,0 l/m 0,0 km/h N -0,8 C 3,0 C 1,6 km/h
01.03.2021 08:00 4,0 C 76 % 1034,9 hPa 0,0 l/m 0,3 km/h N 0,2 C 4,0 C 3,2 km/h
01.03.2021 09:00 5,3 C 75 % 1035,2 hPa 0,0 l/m 1,5 km/h N 1,2 C 5,3 C 10,1 km/h
01.03.2021 10:00 6,4 C 74 % 1035,0 hPa 0,0 l/m 1,2 km/h N 2,1 C 6,4 C 5,6 km/h
01.03.2021 11:00 7,9 C 69 % 1034,7 hPa 0,0 l/m 1,6 km/h N 2,6 C 7,9 C 7,6 km/h
01.03.2021 12:00 8,6 C 66 % 1034,6 hPa 0,0 l/m 2,5 km/h N 2,6 C 8,6 C 11,3 km/h
01.03.2021 13:00 8,9 C 67 % 1034,2 hPa 0,0 l/m 2,5 km/h N 3,1 C 8,9 C 14,1 km/h
01.03.2021 14:00 8,9 C 68 % 1033,9 hPa 0,0 l/m 2,2 km/h N 3,3 C 8,9 C 12,9 km/h
01.03.2021 15:00 8,7 C 68 % 1033,9 hPa 0,0 l/m 1,6 km/h N 3,1 C 8,7 C 9,7 km/h
01.03.2021 16:00 8,1 C 69 % 1033,8 hPa 0,0 l/m 0,9 km/h N 2,8 C 8,1 C 6,0 km/h
01.03.2021 17:00 7,3 C 72 % 1034,0 hPa 0,0 l/m 0,1 km/h N 2,5 C 7,3 C 1,6 km/h
01.03.2021 18:00 5,5 C 74 % 1034,5 hPa 0,0 l/m 0,0 km/h N 1,2 C 5,5 C 0,0 km/h
01.03.2021 19:00 3,7 C 77 % 1034,8 hPa 0,0 l/m 0,0 km/h N -0,0 C 3,7 C 0,0 km/h
01.03.2021 20:00 2,1 C 79 % 1035,1 hPa 0,0 l/m 0,0 km/h N -1,1 C 2,1 C 0,0 km/h
01.03.2021 21:00 1,0 C 81 % 1035,4 hPa 0,0 l/m 0,0 km/h N -2,0 C 1,0 C 0,0 km/h
01.03.2021 22:00 0,2 C 82 % 1035,5 hPa 0,0 l/m 0,0 km/h N -2,6 C 0,2 C 0,0 km/h
01.03.2021 23:00 -0,5 C 82 % 1035,7 hPa 0,0 l/m 0,0 km/h N -3,2 C -0,5 C 0,0 km/h
02.03.2021 00:00 -1,1 C 82 % 1035,8 hPa 0,0 l/m 0,0 km/h N -3,8 C -1,1 C 0,0 km/h
02.03.2021 01:00 -1,6 C 82 % 1035,9 hPa 0,0 l/m 0,0 km/h N -4,2 C -1,6 C 0,0 km/h
02.03.2021 02:00 -2,0 C 82 % 1035,7 hPa 0,0 l/m 0,0 km/h N -4,7 C -2,0 C 0,0 km/h
02.03.2021 03:00 -1,9 C 82 % 1035,2 hPa 0,0 l/m 0,0 km/h N -4,6 C -1,9 C 0,0 km/h
02.03.2021 04:00 -2,1 C 82 % 1035,3 hPa 0,0 l/m 0,0 km/h N -4,8 C -2,1 C 0,0 km/h
02.03.2021 05:00 -2,7 C 82 % 1035,3 hPa 0,0 l/m 0,0 km/h N -5,3 C -2,7 C 0,0 km/h
02.03.2021 06:00 -3,1 C 82 % 1035,4 hPa 0,0 l/m 0,0 km/h N -5,7 C -3,1 C 0,0 km/h
02.03.2021 07:00 -3,0 C 82 % 1035,9 hPa 0,0 l/m 0,0 km/h N -5,6 C -3,0 C 0,0 km/h
02.03.2021 08:00 -1,3 C 82 % 1036,3 hPa 0,0 l/m 0,0 km/h N -3,9 C -1,3 C 0,0 km/h
02.03.2021 09:00 0,9 C 82 % 1036,3 hPa 0,0 l/m 0,0 km/h N -1,8 C 0,9 C 0,0 km/h
02.03.2021 10:00 2,6 C 82 % 1036,4 hPa 0,0 l/m 0,0 km/h N -0,2 C 2,6 C 0,0 km/h
02.03.2021 11:00 3,3 C 82 % 1036,3 hPa 0,0 l/m 0,0 km/h N 0,6 C 3,3 C 0,8 km/h
02.03.2021 12:00 4,5 C 82 % 1035,8 hPa 0,0 l/m 0,0 km/h N 1,6 C 4,5 C 0,8 km/h
02.03.2021 13:00 5,8 C 81 % 1035,1 hPa 0,0 l/m 0,2 km/h N 2,8 C 5,8 C 2,4 km/h
02.03.2021 14:00 8,2 C 79 % 1034,4 hPa 0,0 l/m 0,3 km/h N 4,8 C 8,2 C 4,8 km/h
02.03.2021 15:00 9,6 C 73 % 1033,9 hPa 0,0 l/m 0,1 km/h N 5,0 C 9,6 C 2,0 km/h
02.03.2021 16:00 9,8 C 71 % 1033,7 hPa 0,0 l/m 0,1 km/h N 4,7 C 9,8 C 1,6 km/h
02.03.2021 17:00 9,0 C 71 % 1033,5 hPa 0,0 l/m 0,0 km/h N 4,0 C 9,0 C 0,0 km/h
02.03.2021 18:00 6,3 C 73 % 1033,7 hPa 0,0 l/m 0,0 km/h N 1,8 C 6,3 C 0,0 km/h
02.03.2021 19:00 4,1 C 77 % 1033,8 hPa 0,0 l/m 0,0 km/h N 0,4 C 4,1 C 0,0 km/h
02.03.2021 20:00 2,5 C 80 % 1034,0 hPa 0,0 l/m 0,0 km/h N -0,6 C 2,5 C 0,0 km/h
02.03.2021 21:00 1,2 C 81 % 1033,9 hPa 0,0 l/m 0,0 km/h N -1,6 C 1,2 C 0,0 km/h
02.03.2021 22:00 0,6 C 82 % 1033,8 hPa 0,0 l/m 0,0 km/h N -2,1 C 0,6 C 0,0 km/h
02.03.2021 23:00 -0,3 C 82 % 1033,5 hPa 0,0 l/m 0,0 km/h N -2,9 C -0,3 C 0,0 km/h
03.03.2021 00:00 -0,4 C 82 % 1033,3 hPa 0,0 l/m 0,0 km/h N -3,1 C -0,4 C 0,0 km/h
03.03.2021 01:00 -0,3 C 82 % 1033,0 hPa 0,0 l/m 0,0 km/h N -3,0 C -0,3 C 0,0 km/h
03.03.2021 02:00 -0,8 C 82 % 1032,5 hPa 0,0 l/m 0,0 km/h N -3,5 C -0,8 C 0,0 km/h
03.03.2021 03:00 -1,5 C 82 % 1032,2 hPa 0,0 l/m 0,0 km/h N -4,2 C -1,5 C 0,0 km/h
03.03.2021 04:00 -2,0 C 82 % 1032,1 hPa 0,0 l/m 0,0 km/h N -4,6 C -2,0 C 0,0 km/h
03.03.2021 05:00 -1,8 C 82 % 1032,4 hPa 0,0 l/m 0,0 km/h N -4,5 C -1,8 C 0,0 km/h
03.03.2021 06:00 -2,0 C 82 % 1032,4 hPa 0,0 l/m 0,0 km/h N -4,7 C -2,0 C 0,0 km/h
03.03.2021 07:00 -2,6 C 82 % 1032,4 hPa 0,0 l/m 0,0 km/h N -5,2 C -2,6 C 0,0 km/h
03.03.2021 08:00 -1,2 C 82 % 1032,5 hPa 0,0 l/m 0,0 km/h N -3,8 C -1,2 C 0,0 km/h
03.03.2021 09:00 1,5 C 83 % 1032,3 hPa 0,0 l/m 0,0 km/h N -1,2 C 1,5 C 0,4 km/h
03.03.2021 10:00 3,8 C 83 % 1031,9 hPa 0,0 l/m 0,0 km/h N 1,1 C 3,8 C 0,0 km/h
03.03.2021 11:00 5,6 C 83 % 1031,4 hPa 0,0 l/m 0,0 km/h N 3,0 C 5,6 C 0,0 km/h
03.03.2021 12:00 8,0 C 82 % 1030,5 hPa 0,0 l/m 0,2 km/h N 5,1 C 8,0 C 3,6 km/h
03.03.2021 13:00 10,5 C 77 % 1029,5 hPa 0,0 l/m 0,1 km/h N 6,7 C 10,5 C 3,6 km/h
03.03.2021 14:00 11,6 C 70 % 1028,8 hPa 0,0 l/m 0,2 km/h N 6,3 C 11,6 C 2,8 km/h
03.03.2021 15:00 12,2 C 67 % 1028,1 hPa 0,0 l/m 0,1 km/h N 6,3 C 12,2 C 1,6 km/h
03.03.2021 16:00 11,5 C 68 % 1027,7 hPa 0,0 l/m 0,0 km/h N 5,7 C 11,5 C 1,2 km/h
03.03.2021 17:00 9,6 C 70 % 1027,4 hPa 0,0 l/m 0,0 km/h N 4,5 C 9,6 C 0,0 km/h
03.03.2021 18:00 7,4 C 75 % 1027,4 hPa 0,0 l/m 0,0 km/h N 3,1 C 7,4 C 0,0 km/h
03.03.2021 19:00 5,5 C 79 % 1027,0 hPa 0,0 l/m 0,0 km/h N 2,1 C 5,5 C 0,0 km/h
03.03.2021 20:00 4,1 C 81 % 1026,5 hPa 0,0 l/m 0,0 km/h N 1,0 C 4,1 C 0,0 km/h
03.03.2021 21:00 3,3 C 81 % 1026,0 hPa 0,0 l/m 0,0 km/h N 0,4 C 3,3 C 0,0 km/h
03.03.2021 22:00 2,7 C 82 % 1025,6 hPa 0,0 l/m 0,0 km/h N -0,1 C 2,7 C 0,0 km/h
03.03.2021 23:00 2,3 C 82 % 1024,8 hPa 0,0 l/m 0,0 km/h N -0,4 C 2,3 C 0,0 km/h
04.03.2021 00:00 2,1 C 82 % 1024,3 hPa 0,0 l/m 0,0 km/h N -0,6 C 2,1 C 0,0 km/h
04.03.2021 01:00 1,6 C 82 % 1023,6 hPa 0,0 l/m 0,0 km/h N -1,1 C 1,6 C 0,0 km/h
04.03.2021 02:00 1,2 C 82 % 1022,8 hPa 0,0 l/m 0,0 km/h N -1,5 C 1,2 C 0,0 km/h
04.03.2021 03:00 1,1 C 82 % 1022,0 hPa 0,0 l/m 0,0 km/h N -1,6 C 1,1 C 0,4 km/h
04.03.2021 04:00 1,1 C 82 % 1021,8 hPa 0,0 l/m 0,0 km/h N -1,6 C 1,1 C 0,0 km/h
04.03.2021 05:00 1,0 C 82 % 1021,5 hPa 0,0 l/m 0,0 km/h N -1,7 C 1,0 C 0,0 km/h
04.03.2021 06:00 0,9 C 82 % 1021,0 hPa 0,0 l/m 0,0 km/h N -1,9 C 0,9 C 0,0 km/h
04.03.2021 07:00 1,3 C 82 % 1020,8 hPa 0,0 l/m 0,0 km/h N -1,6 C 1,3 C 0,0 km/h
04.03.2021 08:00 2,8 C 82 % 1020,8 hPa 0,0 l/m 0,0 km/h N 0,1 C 2,8 C 0,4 km/h
04.03.2021 09:00 6,8 C 79 % 1020,0 hPa 0,0 l/m 2,4 km/h N 3,2 C 6,8 C 11,3 km/h
04.03.2021 10:00 12,6 C 48 % 1019,2 hPa 0,0 l/m 5,5 km/h N 2,0 C 12,5 C 23,3 km/h
04.03.2021 11:00 13,6 C 46 % 1018,7 hPa 0,0 l/m 7,8 km/h N 2,0 C 12,7 C 25,3 km/h
04.03.2021 12:00 13,8 C 48 % 1018,3 hPa 0,0 l/m 5,4 km/h N 3,0 C 13,4 C 18,9 km/h
04.03.2021 13:00 13,9 C 49 % 1017,6 hPa 0,0 l/m 2,7 km/h N 3,3 C 13,9 C 14,5 km/h
04.03.2021 14:00 13,9 C 44 % 1016,8 hPa 0,0 l/m 2,4 km/h N 1,8 C 13,9 C 12,5 km/h
04.03.2021 15:00 14,0 C 43 % 1016,1 hPa 0,0 l/m 1,5 km/h N 1,6 C 14,0 C 8,1 km/h
04.03.2021 16:00 13,6 C 42 % 1015,4 hPa 0,0 l/m 0,4 km/h N 1,0 C 13,6 C 4,0 km/h
04.03.2021 17:00 13,4 C 43 % 1014,8 hPa 0,0 l/m 1,3 km/h N 1,2 C 13,4 C 7,6 km/h
04.03.2021 18:00 13,1 C 44 % 1014,5 hPa 0,0 l/m 0,6 km/h N 1,2 C 13,1 C 5,2 km/h
04.03.2021 19:00 12,4 C 47 % 1014,1 hPa 0,0 l/m 0,1 km/h N 1,3 C 12,4 C 1,2 km/h
04.03.2021 20:00 10,8 C 51 % 1013,8 hPa 0,0 l/m 0,0 km/h N 1,0 C 10,8 C 0,0 km/h
04.03.2021 21:00 10,3 C 50 % 1013,3 hPa 0,0 l/m 0,0 km/h N 0,4 C 10,3 C 0,8 km/h
04.03.2021 22:00 9,1 C 54 % 1013,1 hPa 0,0 l/m 0,0 km/h N 0,2 C 9,1 C 0,0 km/h
04.03.2021 23:00 7,8 C 58 % 1012,8 hPa 0,0 l/m 0,2 km/h N 0,1 C 7,8 C 1,2 km/h
05.03.2021 00:00 10,2 C 51 % 1012,3 hPa 0,0 l/m 0,5 km/h N 0,4 C 10,2 C 6,4 km/h
05.03.2021 01:00 11,5 C 47 % 1012,1 hPa 0,0 l/m 2,7 km/h N 0,4 C 11,5 C 13,7 km/h
05.03.2021 02:00 11,7 C 49 % 1011,7 hPa 0,0 l/m 3,8 km/h N 1,3 C 11,7 C 18,5 km/h
05.03.2021 03:00 11,1 C 53 % 1011,4 hPa 0,0 l/m 2,2 km/h N 1,8 C 11,1 C 12,9 km/h
05.03.2021 04:00 10,4 C 59 % 1011,3 hPa 0,0 l/m 6,0 km/h N 2,7 C 10,1 C 23,3 km/h
05.03.2021 05:00 9,0 C 71 % 1011,8 hPa 0,0 l/m 4,8 km/h N 3,9 C 8,8 C 25,8 km/h
05.03.2021 06:00 8,4 C 74 % 1012,0 hPa 0,0 l/m 5,2 km/h N 4,1 C 8,4 C 26,9 km/h
05.03.2021 07:00 8,5 C 75 % 1012,7 hPa 0,0 l/m 7,3 km/h N 4,2 C 7,8 C 31,0 km/h
05.03.2021 08:00 7,0 C 77 % 1014,3 hPa 1,0 l/m 6,3 km/h N 3,3 C 5,9 C 24,5 km/h
05.03.2021 09:00 3,5 C 81 % 1016,5 hPa 1,0 l/m 9,2 km/h N 0,5 C 1,1 C 24,1 km/h
05.03.2021 10:00 3,2 C 81 % 1017,5 hPa 1,0 l/m 6,2 km/h N 0,3 C 3,2 C 18,9 km/h
05.03.2021 11:00 3,1 C 81 % 1018,5 hPa 0,8 l/m 4,0 km/h N 0,2 C 3,1 C 20,1 km/h
05.03.2021 12:00 3,1 C 81 % 1019,1 hPa 0,5 l/m 2,4 km/h N 0,1 C 3,1 C 15,3 km/h
05.03.2021 13:00 3,2 C 82 % 1019,4 hPa 0,5 l/m 4,8 km/h N 0,3 C 3,2 C 18,5 km/h
05.03.2021 14:00 3,3 C 82 % 1020,0 hPa 0,3 l/m 4,0 km/h N 0,4 C 3,3 C 15,3 km/h
05.03.2021 15:00 4,0 C 82 % 1020,6 hPa 0,0 l/m 4,8 km/h N 1,2 C 4,0 C 18,5 km/h
05.03.2021 16:00 2,4 C 82 % 1022,1 hPa 0,3 l/m 4,8 km/h N -0,4 C 2,4 C 19,3 km/h
05.03.2021 17:00 1,1 C 82 % 1023,6 hPa 0,3 l/m 2,4 km/h N -1,6 C 1,1 C 17,7 km/h
05.03.2021 18:00 1,2 C 82 % 1024,6 hPa 0,3 l/m 2,4 km/h N -1,5 C 1,2 C 11,3 km/h
05.03.2021 19:00 1,3 C 82 % 1025,8 hPa 0,3 l/m 4,8 km/h N -1,5 C 1,3 C 16,9 km/h
05.03.2021 20:00 0,8 C 82 % 1027,1 hPa 0,0 l/m 1,6 km/h N -2,0 C 0,8 C 14,5 km/h
05.03.2021 21:00 0,2 C 79 % 1028,2 hPa 0,0 l/m 2,4 km/h N -3,0 C 0,2 C 10,5 km/h
05.03.2021 22:00 -0,3 C 77 % 1029,2 hPa 0,0 l/m 0,0 km/h N -3,8 C -0,3 C 7,3 km/h
05.03.2021 23:00 -0,6 C 77 % 1029,8 hPa 0,0 l/m 1,6 km/h N -4,1 C -0,6 C 12,1 km/h
06.03.2021 00:00 -0,6 C 75 % 1030,4 hPa 0,0 l/m 2,4 km/h N -4,6 C -0,6 C 11,3 km/h
06.03.2021 01:00 -0,6 C 74 % 1031,1 hPa 0,0 l/m 1,6 km/h N -4,7 C -0,6 C 12,9 km/h
06.03.2021 02:00 -0,8 C 73 % 1031,1 hPa 0,0 l/m 1,6 km/h N -5,0 C -0,8 C 9,7 km/h
06.03.2021 03:00 -0,8 C 73 % 1031,4 hPa 0,0 l/m 1,6 km/h N -5,1 C -0,8 C 11,3 km/h
06.03.2021 04:00 -0,9 C 73 % 1031,7 hPa 0,0 l/m 0,8 km/h N -5,1 C -0,9 C 6,5 km/h
06.03.2021 05:00 -1,2 C 74 % 1032,1 hPa 0,0 l/m 0,0 km/h N -5,2 C -1,2 C 9,7 km/h
06.03.2021 06:00 -1,2 C 73 % 1032,1 hPa 0,0 l/m 0,8 km/h N -5,4 C -1,2 C 10,5 km/h
06.03.2021 07:00 -0,7 C 73 % 1032,9 hPa 0,0 l/m 0,2 km/h N -5,0 C -0,7 C 2,8 km/h
06.03.2021 08:00 0,0 C 73 % 1033,5 hPa 0,0 l/m 0,1 km/h N -4,3 C 0,0 C 1,2 km/h
06.03.2021 09:00 1,6 C 68 % 1033,8 hPa 0,0 l/m 0,5 km/h N -3,7 C 1,6 C 3,2 km/h
06.03.2021 10:00 3,1 C 59 % 1034,0 hPa 0,3 l/m 1,5 km/h N -4,2 C 3,1 C 8,0 km/h
06.03.2021 11:00 3,8 C 50 % 1033,9 hPa 0,0 l/m 0,6 km/h N -5,6 C 3,8 C 4,0 km/h
06.03.2021 12:00 4,7 C 49 % 1033,3 hPa 0,0 l/m 1,0 km/h N -5,1 C 4,7 C 6,0 km/h
06.03.2021 13:00 4,6 C 48 % 1032,8 hPa 0,0 l/m 0,6 km/h N -5,6 C 4,6 C 4,8 km/h
06.03.2021 14:00 5,7 C 44 % 1032,0 hPa 0,0 l/m 0,9 km/h N -5,6 C 5,7 C 6,4 km/h
06.03.2021 15:00 5,7 C 43 % 1031,4 hPa 0,0 l/m 0,7 km/h N -5,8 C 5,7 C 4,4 km/h
06.03.2021 16:00 5,2 C 42 % 1030,8 hPa 0,0 l/m 0,2 km/h N -6,5 C 5,2 C 2,4 km/h
06.03.2021 17:00 4,7 C 45 % 1030,7 hPa 0,0 l/m 0,0 km/h N -6,4 C 4,7 C 0,8 km/h
06.03.2021 18:00 2,2 C 52 % 1031,2 hPa 0,0 l/m 0,0 km/h N -6,8 C 2,2 C 0,0 km/h
06.03.2021 19:00 0,1 C 60 % 1031,5 hPa 0,0 l/m 0,0 km/h N -6,8 C 0,1 C 0,0 km/h
06.03.2021 20:00 -1,4 C 66 % 1031,3 hPa 0,0 l/m 0,0 km/h N -7,0 C -1,4 C 0,0 km/h
06.03.2021 21:00 -2,4 C 71 % 1031,2 hPa 0,0 l/m 0,0 km/h N -6,9 C -2,4 C 0,0 km/h
06.03.2021 22:00 -3,0 C 75 % 1030,6 hPa 0,0 l/m 0,0 km/h N -6,9 C -3,0 C 0,0 km/h
06.03.2021 23:00 -3,6 C 77 % 1029,9 hPa 0,0 l/m 0,0 km/h N -7,1 C -3,6 C 0,0 km/h
07.03.2021 00:00 -4,2 C 79 % 1029,4 hPa 0,0 l/m 0,0 km/h N -7,4 C -4,2 C 0,0 km/h
07.03.2021 01:00 -4,8 C 80 % 1028,9 hPa 0,0 l/m 0,0 km/h N -7,7 C -4,8 C 0,0 km/h
07.03.2021 02:00 -5,2 C 81 % 1028,1 hPa 0,0 l/m 0,0 km/h N -7,9 C -5,2 C 0,0 km/h
07.03.2021 03:00 -5,5 C 82 % 1027,4 hPa 0,0 l/m 0,0 km/h N -8,0 C -5,5 C 0,0 km/h
07.03.2021 04:00 -5,7 C 82 % 1027,1 hPa 0,0 l/m 0,0 km/h N -8,3 C -5,7 C 0,0 km/h
07.03.2021 05:00 -5,9 C 82 % 1027,0 hPa 0,0 l/m 0,0 km/h N -8,4 C -5,9 C 0,0 km/h
07.03.2021 06:00 -6,1 C 82 % 1026,9 hPa 0,0 l/m 0,0 km/h N -8,7 C -6,1 C 0,0 km/h
07.03.2021 07:00 -5,6 C 83 % 1026,8 hPa 0,0 l/m 0,0 km/h N -8,1 C -5,6 C 0,0 km/h
07.03.2021 08:00 -3,7 C 83 % 1026,7 hPa 0,0 l/m 0,0 km/h N -6,2 C -3,7 C 0,4 km/h
07.03.2021 09:00 -1,3 C 82 % 1026,2 hPa 0,0 l/m 0,0 km/h N -4,0 C -1,3 C 0,0 km/h
07.03.2021 10:00 2,6 C 73 % 1025,2 hPa 0,0 l/m 0,0 km/h N -1,8 C 2,6 C 0,4 km/h
07.03.2021 11:00 5,2 C 59 % 1024,4 hPa 0,0 l/m 0,1 km/h N -2,2 C 5,2 C 2,8 km/h
07.03.2021 12:00 5,9 C 56 % 1023,3 hPa 0,0 l/m 0,5 km/h N -2,1 C 5,9 C 4,8 km/h
07.03.2021 13:00 7,2 C 51 % 1022,0 hPa 0,0 l/m 0,4 km/h N -2,2 C 7,2 C 4,4 km/h
07.03.2021 14:00 8,8 C 46 % 1020,7 hPa 0,0 l/m 0,1 km/h N -2,1 C 8,8 C 2,8 km/h
07.03.2021 15:00 8,9 C 45 % 1019,8 hPa 0,0 l/m 0,1 km/h N -2,5 C 8,9 C 1,6 km/h
07.03.2021 16:00 8,4 C 45 % 1019,1 hPa 0,0 l/m 0,0 km/h N -2,8 C 8,4 C 0,8 km/h
07.03.2021 17:00 7,5 C 48 % 1018,7 hPa 0,0 l/m 0,0 km/h N -2,9 C 7,5 C 0,4 km/h
07.03.2021 18:00 4,7 C 55 % 1018,9 hPa 0,0 l/m 0,0 km/h N -3,6 C 4,7 C 0,0 km/h
07.03.2021 19:00 2,4 C 63 % 1019,0 hPa 0,0 l/m 0,0 km/h N -3,9 C 2,4 C 0,0 km/h
07.03.2021 20:00 0,8 C 69 % 1018,7 hPa 0,0 l/m 0,0 km/h N -4,3 C 0,8 C 0,0 km/h
07.03.2021 21:00 0,6 C 72 % 1018,2 hPa 0,0 l/m 0,0 km/h N -3,9 C 0,6 C 0,4 km/h
07.03.2021 22:00 0,9 C 71 % 1017,7 hPa 0,0 l/m 0,0 km/h N -3,7 C 0,9 C 0,0 km/h
07.03.2021 23:00 0,2 C 72 % 1017,5 hPa 0,0 l/m 0,0 km/h N -4,2 C 0,2 C 0,4 km/h
Min-Datum _ 07.03.21 06.03.21 05.03.21 - 01.03.21 - 07.03.21 07.03.21 01.03.21
_ Min-Zeit 06:15 16:30 03:45 - 00:00 - 06:00 06:00 00:00
Minimum _ -6,1 C 41 % 1011,2 hPa - 0,0 km/h - -8,7 C -6,1 C 0,0 km/h
Max-Datum _ 04.03.21 03.03.21 02.03.21 05.03.21 05.03.21 - 03.03.21 04.03.21 05.03.21
_ Max-Zeit 15:00 08:45 10:30 08:15 08:45 - 13:15 14:45 07:00
Maximum _ 14,2 C 83 % 1036,5 hPa 1,0 l/m 11,9 km/h
N
- 6,8 C 14,1 C 35,4 km/h
N
Durchschnitt _ 3,5 C 71 % 1027,3 hPa #6,5 l/m 0,9 km/h N -1,4 C 3,5 C 4,8 km/h